메인 페이지
METAR-TAF:

METAR-TAF

공항 :

Hattiesburg-Laurel Regional Airport

Hattiesburg / 로럴, 미시시피, 미국

위도: 31-28N, 경도: 089-20W, 고도: 91m

현재 날씨관측

예보는 19분 전, 04:56시(UTC)에 발표되었습니다.
6kt
온도 11°C
습도 62%
기압 1020 hPa
시정: 16.1km
맑음

METAR: KPIB 220456Z AUTO 35006KT 10SM CLR 11/04 A3012 RMK AO2 SLP200 T01060039

시각: 00:15 (05:15 UTC)

예보

예보는 5 시간 52분 전, 23:23시(UTC)에 발표되었습니다.
예보 대상 시간: 22일 00시부터 22일 24시까지 (UTC)
북서5kt
시정: 10km
맑음

TAF: KPIB 212323Z 2200/2224 32005KT P6SM SKC

4,000개 이상의 공항 관측 자료 및 예보 (METAR 및 TAF 보고).

지도상에서 검색 가능한 기상관측소가 노란 점과 빨간 점으로 표시되어 있습니다.

기상관측소 명을 보려면 표시 위로 마우스를 이동하세요.

날씨 관측과 예보를 보려면 클릭하세요.

지도 변경 : 확대하려면 엑스 표시가 있는 녹색 버튼, 축소하려면 빼기 표시가 있는 녹색 버튼, 다음 페이지의 지도를 보려면 녹색 화살표를 클릭하세요.


METAR-TAF: